Latest Weather Observations for Mallacoota

IDV60801

Issued at 5:02 pm EST Sunday 25 September 2016 (issued every 30 minutes, with the page automatically refreshed every 10 minutes)

About weather observations | Map of weather stations | Latest weather observations for VIC | Other Formats
Station Details ID: 084084 Name: MALLACOOTA Lat: -37.60 Lon: 149.73 Height: 22.0 m
Data from the previous 72 hours. | See also: Recent months at Mallacoota
Date/Time
EST
Temp
°C
App
Temp
°C
Dew
Point
°C
Rel
Hum
%
Delta-T
°C
Wind Press
QNH
hPa
Press
MSL
hPa
Rain since
9am
mm
Dir  Spd
km/h
Gust
km/h
Spd
kts
Gust
kts
25/05:00pm 12.2 9.4 7.1 71 2.5 WSW 11 20 6 11 1009.6 - 1.0
25/04:30pm 12.4 9.0 7.5 72 2.4 SW 15 22 8 12 1009.2 - 1.0
25/04:00pm 12.3 9.4 8.2 76 2.0 WSW 13 20 7 11 1008.9 - 1.0
25/03:30pm 12.0 8.9 8.8 81 1.6 SW 15 24 8 13 1009.0 - 1.0
25/03:00pm 12.5 9.0 8.8 78 1.9 SW 17 28 9 15 1009.0 1009.0 1.0
25/02:30pm 12.9 9.9 9.4 79 1.8 SSW 15 24 8 13 1008.8 - 1.0
25/02:00pm 13.3 9.5 9.2 76 2.1 SW 19 26 10 14 1008.5 - 1.0
25/01:30pm 13.2 9.6 9.8 80 1.7 SW 19 39 10 21 1008.4 - 1.0
25/01:00pm 13.5 10.2 9.7 78 1.9 SW 17 30 9 16 1008.3 - 1.0
25/12:30pm 13.7 9.7 9.0 73 2.4 SW 20 33 11 18 1008.0 - 1.0
25/12:00pm 13.8 8.8 8.2 69 2.8 SW 24 39 13 21 1007.9 1007.9 1.0
25/11:30am 14.2 10.5 10.0 76 2.2 SW 20 39 11 21 1007.6 - 1.0
25/11:00am 12.9 10.1 11.3 90 0.8 WSW 17 28 9 15 1007.5 - 1.0
25/10:30am 14.3 10.9 10.5 78 2.0 SW 19 28 10 15 1007.4 - 0.0
25/10:00am 14.4 11.0 10.4 77 2.1 SW 19 35 10 19 1007.2 - 0.0
25/09:30am 15.8 12.2 9.9 68 3.1 SW 19 30 10 16 1006.9 - 0.0
25/09:00am 16.9 13.3 9.8 63 3.7 SW 19 35 10 19 1006.6 1006.6 0.8
25/08:30am 16.3 13.3 9.3 63 3.6 SW 15 24 8 13 1006.6 - 0.8
25/08:00am 15.7 13.5 9.4 66 3.3 WSW 11 19 6 10 1006.2 - 0.8
25/07:30am 15.0 12.6 10.2 73 2.5 WSW 13 20 7 11 1005.6 - 0.8
25/07:00am 14.1 12.0 9.7 75 2.3 W 11 17 6 9 1005.0 - 0.8
25/06:30am 13.0 11.2 9.4 79 1.8 WNW 9 15 5 8 1004.8 - 0.8
25/06:00am 12.8 10.2 9.3 79 1.8 W 13 19 7 10 1004.5 1004.5 0.8
25/05:30am 12.4 10.9 9.1 80 1.7 W 7 13 4 7 1004.3 - 0.8
25/05:00am 12.1 10.8 9.1 82 1.5 NW 6 9 3 5 1004.4 - 0.8
25/04:30am 12.6 10.9 8.5 76 2.0 NW 7 13 4 7 1004.3 - 0.8
25/04:00am 12.7 11.3 9.7 82 1.5 WSW 7 11 4 6 1003.9 - 0.8
25/03:30am 13.6 11.4 9.3 75 2.2 WSW 11 19 6 10 1004.0 - 0.8
25/03:00am 13.9 11.4 9.7 76 2.2 W 13 22 7 12 1004.5 1004.5 0.8
25/02:30am 14.1 11.9 10.7 80 1.8 W 13 22 7 12 1005.0 - 0.8
25/02:00am 14.5 12.7 12.0 85 1.4 WSW 13 24 7 13 1005.0 - 0.2
25/01:30am 14.2 14.3 12.6 90 0.9 WNW 4 7 2 4 1004.8 - 0.2
25/01:00am 14.5 15.0 12.7 89 1.0 NNW 2 7 1 4 1005.0 - 0.2
25/12:30am 14.7 13.6 13.1 90 0.9 NNW 11 19 6 10 1004.9 - 0.2
25/12:00am 14.7 14.0 13.1 90 0.9 NNW 9 13 5 7 1005.1 1005.1 0.2
 
Date/Time
EST
Temp
°C
App
Temp
°C
Dew
Point
°C
Rel
Hum
%
Delta-T
°C
Wind Press
QNH
hPa
Press
MSL
hPa
Rain since
9am
mm
Dir  Spd
km/h
Gust
km/h
Spd
kts
Gust
kts
24/11:30pm 14.7 14.0 13.1 90 0.9 NNW 9 15 5 8 1005.6 - 0.2
24/11:00pm 14.7 14.3 13.1 90 0.9 N 7 9 4 5 1005.6 - 0.2
24/10:30pm 14.9 13.8 13.1 89 1.0 N 11 13 6 7 1005.5 - 0.2
24/10:00pm 14.8 14.0 13.0 89 1.0 N 9 13 5 7 1005.8 - 0.2
24/09:30pm 14.8 14.1 13.2 90 0.9 N 9 13 5 7 1006.1 - 0.2
24/09:00pm 15.0 14.3 13.2 89 1.0 N 9 13 5 7 1006.6 1006.6 0.2
24/08:30pm 15.2 14.9 13.2 88 1.1 N 7 11 4 6 1007.1 - 0.0
24/08:00pm 15.5 14.8 13.3 87 1.2 NNE 9 11 5 6 1007.2 - 0.0
24/07:30pm 15.5 14.8 13.2 86 1.3 NNE 9 11 5 6 1007.1 - 0.0
24/07:00pm 16.1 15.2 12.7 80 1.9 N 9 17 5 9 1007.1 - 0.0
24/06:30pm 15.7 14.8 12.5 81 1.8 N 9 13 5 7 1006.8 - 0.0
24/06:00pm 16.3 14.7 12.7 79 2.0 NNE 13 17 7 9 1006.3 1006.3 0.0
24/05:30pm 16.9 15.3 12.8 77 2.3 NNE 13 19 7 10 1006.4 - 0.0
24/05:00pm 17.4 14.6 12.7 74 2.6 NNE 19 22 10 12 1006.4 - 0.0
24/04:30pm 18.2 15.9 13.1 72 2.9 NNE 17 24 9 13 1006.2 - 0.0
24/04:00pm 18.2 15.5 12.9 71 3.0 NNE 19 28 10 15 1005.7 - 0.0
24/03:30pm 18.3 15.8 13.6 74 2.7 NE 19 35 10 19 1005.6 - 0.0
24/03:00pm 17.9 14.7 13.2 74 2.7 NE 22 32 12 17 1005.9 1005.9 0.0
24/02:30pm 18.1 15.0 13.4 74 2.7 ENE 22 30 12 16 1006.3 - 0.0
24/02:00pm 18.7 16.1 13.8 73 2.8 NE 20 33 11 18 1006.6 - 0.0
24/01:30pm 18.1 15.6 14.2 78 2.2 ENE 20 33 11 18 1007.2 - 0.0
24/01:00pm 18.0 15.7 14.1 78 2.2 ENE 19 28 10 15 1007.5 - 0.0
24/12:30pm 18.1 16.1 14.0 77 2.3 ENE 17 26 9 14 1008.1 - 0.0
24/12:00pm 17.4 15.4 13.9 80 2.0 E 17 24 9 13 1008.6 1008.6 0.0
24/11:30am 17.8 16.5 14.7 82 1.8 ENE 15 24 8 13 1009.1 - 0.0
24/11:00am 17.3 16.6 14.4 83 1.7 E 11 17 6 9 1009.6 - 0.0
24/10:30am 16.8 15.3 13.1 79 2.1 E 13 17 7 9 1010.0 - 0.0
24/10:00am 17.2 16.2 13.3 78 2.2 ENE 11 15 6 8 1010.4 - 0.0
24/09:30am 16.2 14.8 12.2 77 2.2 ENE 11 15 6 8 1010.9 - 0.0
24/09:00am 16.8 15.7 12.1 74 2.6 NE 9 13 5 7 1011.2 1011.2 2.0
24/08:30am 16.1 14.9 11.7 75 2.4 N 9 11 5 6 1011.4 - 2.0
24/08:00am 14.7 13.4 11.1 79 1.9 NNW 9 11 5 6 1011.6 - 2.0
24/07:30am 12.7 10.7 10.2 85 1.3 NW 11 15 6 8 1011.6 - 2.0
24/07:00am 11.4 9.3 9.7 89 0.9 NW 11 15 6 8 1011.8 - 2.0
24/06:30am 10.3 8.0 9.1 92 0.6 WNW 11 15 6 8 1011.8 - 2.0
24/06:00am 10.3 8.1 9.4 94 0.4 WNW 11 13 6 7 1011.7 1011.7 2.0
24/05:30am 10.1 7.8 9.0 93 0.5 WNW 11 13 6 7 1011.5 - 2.0
24/05:00am 10.5 8.7 9.4 93 0.5 WNW 9 11 5 6 1011.3 - 2.0
24/04:30am 10.8 8.7 9.7 93 0.6 WNW 11 15 6 8 1011.5 - 2.0
24/04:00am 10.8 9.0 9.6 92 0.6 WNW 9 13 5 7 1011.4 - 2.0
24/03:30am 11.0 8.9 9.8 92 0.6 WNW 11 13 6 7 1011.7 - 2.0
24/03:00am 11.2 9.1 9.8 91 0.7 WNW 11 13 6 7 1011.9 1011.9 2.0
24/02:30am 11.2 9.5 9.8 91 0.7 NW 9 13 5 7 1012.0 - 2.0
24/02:00am 11.5 9.8 9.9 90 0.8 WNW 9 13 5 7 1012.2 - 2.0
24/01:30am 11.6 9.9 10.0 90 0.8 WNW 9 13 5 7 1012.5 - 2.0
24/01:00am 11.4 9.7 10.0 91 0.7 WNW 9 11 5 6 1012.5 - 2.0
24/12:30am 11.7 9.7 10.3 91 0.7 WNW 11 15 6 8 1012.6 - 2.0
24/12:00am 11.9 10.4 10.5 91 0.7 WNW 9 15 5 8 1012.8 1012.8 2.0
 
Date/Time
EST
Temp
°C
App
Temp
°C
Dew
Point
°C
Rel
Hum
%
Delta-T
°C
Wind Press
QNH
hPa
Press
MSL
hPa
Rain since
9am
mm
Dir  Spd
km/h
Gust
km/h
Spd
kts
Gust
kts
23/11:30pm 11.8 9.9 10.5 92 0.7 WNW 11 13 6 7 1012.8 - 2.0
23/11:00pm 11.8 10.3 10.5 92 0.7 WNW 9 13 5 7 1013.0 - 2.0
23/10:30pm 12.0 10.5 10.6 91 0.7 W 9 13 5 7 1013.2 - 2.0
23/10:00pm 12.0 10.5 10.7 92 0.7 WNW 9 13 5 7 1013.4 - 2.0
23/09:30pm 12.0 10.5 10.7 92 0.7 WNW 9 15 5 8 1013.5 - 2.0
23/09:00pm 12.1 10.7 10.8 92 0.7 WNW 9 13 5 7 1013.5 1013.5 2.0
23/08:30pm 12.3 10.9 11.0 92 0.7 WNW 9 13 5 7 1013.7 - 2.0
23/08:00pm 12.5 10.8 11.2 92 0.7 WNW 11 19 6 10 1013.9 - 2.0
23/07:30pm 12.6 11.4 11.5 93 0.6 W 9 15 5 8 1013.9 - 2.0
23/07:00pm 12.8 11.6 11.7 93 0.6 W 9 20 5 11 1013.9 - 2.0
23/06:30pm 13.0 11.8 11.7 92 0.7 W 9 15 5 8 1013.8 - 1.8
23/06:00pm 13.3 12.6 11.9 91 0.7 W 7 13 4 7 1013.7 1013.7 1.6
23/05:30pm 13.9 12.3 11.6 86 1.2 W 11 19 6 10 1013.6 - 1.2
23/05:00pm 14.5 12.9 11.5 82 1.6 WSW 11 19 6 10 1013.4 - 1.2
23/04:30pm 15.2 13.7 11.8 80 1.8 WSW 11 20 6 11 1013.3 - 1.2
23/04:00pm 15.8 13.5 11.8 77 2.2 WSW 15 22 8 12 1013.1 - 1.2
23/03:30pm 15.6 13.7 11.8 78 2.1 WSW 13 20 7 11 1013.3 - 1.2
23/03:00pm 15.7 13.4 11.9 78 2.1 WSW 15 24 8 13 1013.5 1013.5 1.2
23/02:30pm 16.0 14.2 12.2 78 2.1 WSW 13 20 7 11 1013.7 - 1.2
23/02:00pm 15.6 13.9 12.4 81 1.8 WSW 13 26 7 14 1013.7 - 1.2
23/01:30pm 14.8 12.2 12.1 84 1.5 WSW 17 30 9 16 1013.8 - 1.2
23/01:00pm 15.0 12.2 12.5 85 1.4 SW 19 30 10 16 1014.0 - 1.2
23/12:30pm 14.4 12.1 13.0 91 0.8 SW 17 28 9 15 1014.2 - 1.2
23/12:00pm 15.2 12.4 12.5 84 1.5 SSW 19 35 10 19 1014.4 1014.4 0.8
23/11:30am 15.6 12.5 13.3 86 1.3 SW 22 32 12 17 1014.5 - 0.8
23/11:00am 14.8 12.1 13.0 89 1.0 SSW 19 32 10 17 1014.6 - 0.8
23/10:30am 14.8 12.6 13.2 90 0.9 SW 17 28 9 15 1014.7 - 0.2
23/10:00am 14.7 12.7 12.6 87 1.1 WSW 15 24 8 13 1014.9 - 0.0
23/09:30am 13.7 11.4 11.9 89 1.0 WSW 15 24 8 13 1015.0 - 0.0
23/09:00am 13.5 10.9 11.9 90 0.9 W 17 26 9 14 1015.0 1015.0 13.2
23/08:30am 13.0 10.8 12.1 94 0.5 W 15 24 8 13 1015.0 - 13.2
23/08:00am 12.4 9.9 11.1 92 0.7 W 15 30 8 16 1014.8 - 13.0
23/07:30am 12.5 9.7 11.2 92 0.7 WSW 17 26 9 14 1014.7 - 12.8
23/07:00am 12.6 10.1 11.0 90 0.8 WSW 15 20 8 11 1014.5 - 12.2
23/06:30am 13.1 10.7 11.5 90 0.8 WSW 15 24 8 13 1014.2 - 12.2
23/06:00am 13.2 10.5 11.6 90 0.9 WSW 17 30 9 16 1014.0 1014.0 12.2
23/05:30am 13.6 10.3 11.7 88 1.0 SW 20 30 11 16 1013.5 - 12.2
23/05:00am 13.5 10.8 11.7 89 1.0 SW 17 24 9 13 1013.2 - 12.2
23/04:30am 13.9 10.3 11.9 88 1.1 SSW 22 35 12 19 1012.9 - 12.2
23/04:00am 14.2 10.6 11.7 85 1.3 SSW 22 32 12 17 1012.7 - 12.2
23/03:30am 14.1 10.4 11.6 85 1.3 SSW 22 30 12 16 1012.6 - 12.2
23/03:00am 14.1 10.8 11.6 85 1.3 SW 20 28 11 15 1012.5 1012.5 12.2
23/02:30am 14.1 10.8 11.6 85 1.3 SSW 20 28 11 15 1012.5 - 12.2
23/02:00am 14.0 11.7 11.7 86 1.2 SW 15 26 8 14 1012.6 - 12.2
23/01:30am 14.1 11.1 12.0 87 1.1 SSW 19 30 10 16 1012.7 - 12.2
23/01:00am 14.0 11.6 12.6 91 0.8 SW 17 26 9 14 1012.8 - 12.2
23/12:30am 13.9 11.0 12.3 90 0.9 SSW 19 28 10 15 1013.0 - 12.2
23/12:00am 14.0 10.4 13.1 94 0.5 SSW 24 37 13 20 1012.9 1012.9 12.2
 
Date/Time
EST
Temp
°C
App
Temp
°C
Dew
Point
°C
Rel
Hum
%
Delta-T
°C
Wind Press
QNH
hPa
Press
MSL
hPa
Rain since
9am
mm
Dir  Spd
km/h
Gust
km/h
Spd
kts
Gust
kts
22/11:30pm 14.5 11.7 12.5 88 1.1 SSW 19 28 10 15 1012.8 - 10.0
22/11:00pm 14.1 11.3 12.7 91 0.8 SSW 19 28 10 15 1012.9 - 10.0
22/10:30pm 13.9 11.4 12.3 90 0.9 SW 17 22 9 12 1012.7 - 10.0
22/10:00pm 14.3 11.9 12.5 89 1.0 SW 17 32 9 17 1012.8 - 9.8
22/09:30pm 13.8 11.7 12.4 91 0.8 SW 15 22 8 12 1012.6 - 9.8
22/09:00pm 14.0 12.0 12.7 92 0.7 SW 15 24 8 13 1012.6 1012.6 9.8
22/08:30pm 14.1 12.1 12.7 91 0.8 SW 15 26 8 14 1012.5 - 9.0
22/08:00pm 14.4 12.0 12.6 89 1.0 SW 17 28 9 15 1012.3 - 9.0
22/07:30pm 14.7 12.0 12.9 89 1.0 SW 19 32 10 17 1011.9 - 9.0
22/07:00pm 14.7 11.3 12.6 87 1.1 SSW 22 35 12 19 1011.8 - 9.0
22/06:30pm 14.9 10.7 12.4 85 1.4 SSW 26 43 14 23 1011.3 - 9.0
22/06:00pm 14.9 10.8 12.8 87 1.2 SSW 26 37 14 20 1010.7 1010.7 9.0
22/05:30pm 14.9 11.6 12.9 88 1.1 SW 22 39 12 21 1010.4 - 9.0

Other Formats:

Comma delimited format used in spreadsheet applications
http://www.bom.gov.au/fwo/IDV60801/IDV60801.94935.axf

JavaScript Object Notation format (JSON) in row-major order
http://www.bom.gov.au/fwo/IDV60801/IDV60801.94935.json